Impacts TAF Board INFO
FOR SITUATIONAL AWARENESS. NOT TO BE USED FOR FLIGHT PLANNING PURPOSES.
IDs:

KSLC - Salt Lake City Intl, UT, US

Issued at 2025 UTC 14 Aug 2018
Updated at 2204 UTC 14 Aug 2018
Potential Impact None Slight Moderate High
Time<<15/23Z 16/00Z 16/01Z 16/02Z 16/03Z 16/04Z 16/05Z 16/06Z 16/07Z 16/08Z 16/09Z 16/10Z 16/11Z
Type PRVL
VIS >6
CIG 180
Cover BKN
FltCat VFR
WX --
WDir 320
WSpd 8
WGst --

Raw TAF
KSLC 142025Z 1420/1524 33010G18KT P6SM FEW100 SCT150
  FM142300 34010KT P6SM SCT120 SCT180
  FM150300 16006KT P6SM BKN200
  FM151800 32008KT P6SM SCT120 BKN180


METAR Board
Radar Display
Forecast Discussion

FOR SITUATIONAL AWARENESS. NOT TO BE USED FOR FLIGHT PLANNING PURPOSES.